sensor_id;sensor_type;location;lat;lon;timestamp;P1;durP1;ratioP1;P2;durP2;ratioP2
63492;SDS011;49638;47.526;10.028;2023-02-28T00:02:46;17.30;;;8.68;;
63492;SDS011;49638;47.526;10.028;2023-02-28T00:05:46;19.85;;;9.38;;
63492;SDS011;49638;47.526;10.028;2023-02-28T00:08:47;18.52;;;8.95;;
63492;SDS011;49638;47.526;10.028;2023-02-28T00:11:48;19.88;;;9.23;;
63492;SDS011;49638;47.526;10.028;2023-02-28T00:14:48;20.70;;;9.30;;
63492;SDS011;49638;47.526;10.028;2023-02-28T00:17:49;16.15;;;8.95;;
63492;SDS011;49638;47.526;10.028;2023-02-28T00:20:49;18.70;;;9.63;;
63492;SDS011;49638;47.526;10.028;2023-02-28T00:23:49;19.30;;;9.15;;
63492;SDS011;49638;47.526;10.028;2023-02-28T00:26:50;17.85;;;8.85;;
63492;SDS011;49638;47.526;10.028;2023-02-28T00:29:50;19.27;;;8.88;;
63492;SDS011;49638;47.526;10.028;2023-02-28T00:32:50;20.67;;;9.23;;
63492;SDS011;49638;47.526;10.028;2023-02-28T00:35:51;18.90;;;8.73;;
63492;SDS011;49638;47.526;10.028;2023-02-28T00:38:51;16.95;;;8.48;;
63492;SDS011;49638;47.526;10.028;2023-02-28T00:41:52;16.80;;;8.05;;
63492;SDS011;49638;47.526;10.028;2023-02-28T00:44:52;17.83;;;8.65;;
63492;SDS011;49638;47.526;10.028;2023-02-28T00:47:52;16.45;;;8.35;;
63492;SDS011;49638;47.526;10.028;2023-02-28T00:50:52;17.88;;;8.68;;
63492;SDS011;49638;47.526;10.028;2023-02-28T00:53:53;18.60;;;8.25;;
63492;SDS011;49638;47.526;10.028;2023-02-28T00:56:53;16.25;;;7.57;;
63492;SDS011;49638;47.526;10.028;2023-02-28T00:59:54;16.90;;;8.55;;
63492;SDS011;49638;47.526;10.028;2023-02-28T01:02:54;18.75;;;8.50;;
63492;SDS011;49638;47.526;10.028;2023-02-28T01:05:54;19.30;;;8.45;;
63492;SDS011;49638;47.526;10.028;2023-02-28T01:08:55;16.25;;;8.18;;
63492;SDS011;49638;47.526;10.028;2023-02-28T01:11:55;18.85;;;8.38;;
63492;SDS011;49638;47.526;10.028;2023-02-28T01:14:55;17.60;;;8.10;;
63492;SDS011;49638;47.526;10.028;2023-02-28T01:17:55;18.67;;;8.55;;
63492;SDS011;49638;47.526;10.028;2023-02-28T01:20:56;21.50;;;9.68;;
63492;SDS011;49638;47.526;10.028;2023-02-28T01:23:56;20.83;;;8.93;;
63492;SDS011;49638;47.526;10.028;2023-02-28T01:26:57;17.88;;;9.00;;
63492;SDS011;49638;47.526;10.028;2023-02-28T01:29:58;18.92;;;8.82;;
63492;SDS011;49638;47.526;10.028;2023-02-28T01:32:58;19.00;;;8.52;;
63492;SDS011;49638;47.526;10.028;2023-02-28T01:36:03;18.75;;;8.32;;
63492;SDS011;49638;47.526;10.028;2023-02-28T01:39:05;17.75;;;8.45;;
63492;SDS011;49638;47.526;10.028;2023-02-28T01:42:07;17.00;;;7.63;;
63492;SDS011;49638;47.526;10.028;2023-02-28T01:45:20;15.63;;;7.40;;
63492;SDS011;49638;47.526;10.028;2023-02-28T01:48:29;14.15;;;7.03;;
63492;SDS011;49638;47.526;10.028;2023-02-28T01:51:34;15.13;;;7.13;;
63492;SDS011;49638;47.526;10.028;2023-02-28T01:54:38;15.68;;;7.13;;
63492;SDS011;49638;47.526;10.028;2023-02-28T01:57:41;16.90;;;7.43;;
63492;SDS011;49638;47.526;10.028;2023-02-28T02:00:46;15.45;;;7.18;;
63492;SDS011;49638;47.526;10.028;2023-02-28T02:03:48;15.68;;;6.93;;
63492;SDS011;49638;47.526;10.028;2023-02-28T02:06:55;17.02;;;7.25;;
63492;SDS011;49638;47.526;10.028;2023-02-28T02:10:14;14.43;;;6.70;;
63492;SDS011;49638;47.526;10.028;2023-02-28T02:40:46;17.08;;;7.47;;
63492;SDS011;49638;47.526;10.028;2023-02-28T02:47:55;18.13;;;6.75;;
63492;SDS011;49638;47.526;10.028;2023-02-28T02:50:59;13.82;;;6.57;;
63492;SDS011;49638;47.526;10.028;2023-02-28T02:54:05;16.73;;;7.35;;
63492;SDS011;49638;47.526;10.028;2023-02-28T02:57:11;15.70;;;7.13;;
63492;SDS011;49638;47.526;10.028;2023-02-28T03:00:20;15.60;;;6.88;;
63492;SDS011;49638;47.526;10.028;2023-02-28T03:03:26;16.13;;;7.00;;
63492;SDS011;49638;47.526;10.028;2023-02-28T03:06:28;15.88;;;7.00;;
63492;SDS011;49638;47.526;10.028;2023-02-28T03:09:32;15.85;;;6.85;;
63492;SDS011;49638;47.526;10.028;2023-02-28T03:12:39;13.07;;;6.70;;
63492;SDS011;49638;47.526;10.028;2023-02-28T03:15:50;14.52;;;6.35;;
63492;SDS011;49638;47.526;10.028;2023-02-28T03:22:33;16.00;;;7.10;;
63492;SDS011;49638;47.526;10.028;2023-02-28T03:26:06;13.77;;;6.47;;
63492;SDS011;49638;47.526;10.028;2023-02-28T03:29:54;18.00;;;6.85;;
63492;SDS011;49638;47.526;10.028;2023-02-28T03:32:51;14.93;;;6.68;;
63492;SDS011;49638;47.526;10.028;2023-02-28T03:35:58;14.57;;;6.75;;
63492;SDS011;49638;47.526;10.028;2023-02-28T03:39:03;13.75;;;6.28;;
63492;SDS011;49638;47.526;10.028;2023-02-28T03:42:12;16.67;;;6.67;;
63492;SDS011;49638;47.526;10.028;2023-02-28T03:45:16;15.10;;;6.18;;
63492;SDS011;49638;47.526;10.028;2023-02-28T03:48:27;14.75;;;6.05;;
63492;SDS011;49638;47.526;10.028;2023-02-28T03:51:53;13.48;;;6.05;;
63492;SDS011;49638;47.526;10.028;2023-02-28T03:54:56;13.25;;;5.78;;
63492;SDS011;49638;47.526;10.028;2023-02-28T04:01:24;8.45;;;4.75;;
63492;SDS011;49638;47.526;10.028;2023-02-28T04:04:30;15.80;;;7.18;;
63492;SDS011;49638;47.526;10.028;2023-02-28T04:07:31;15.63;;;7.28;;
63492;SDS011;49638;47.526;10.028;2023-02-28T04:10:31;17.42;;;7.10;;
63492;SDS011;49638;47.526;10.028;2023-02-28T04:13:32;14.88;;;6.70;;
63492;SDS011;49638;47.526;10.028;2023-02-28T04:16:33;17.30;;;7.13;;
63492;SDS011;49638;47.526;10.028;2023-02-28T04:19:36;16.40;;;7.13;;
63492;SDS011;49638;47.526;10.028;2023-02-28T04:22:37;14.80;;;7.00;;
63492;SDS011;49638;47.526;10.028;2023-02-28T04:25:37;16.38;;;7.88;;
63492;SDS011;49638;47.526;10.028;2023-02-28T04:28:40;11.98;;;5.72;;
63492;SDS011;49638;47.526;10.028;2023-02-28T04:31:40;16.95;;;6.88;;
63492;SDS011;49638;47.526;10.028;2023-02-28T04:34:40;16.92;;;7.28;;
63492;SDS011;49638;47.526;10.028;2023-02-28T04:37:41;15.00;;;6.53;;
63492;SDS011;49638;47.526;10.028;2023-02-28T04:40:41;13.95;;;6.30;;
63492;SDS011;49638;47.526;10.028;2023-02-28T04:43:41;16.30;;;6.47;;
63492;SDS011;49638;47.526;10.028;2023-02-28T04:46:43;12.25;;;6.03;;
63492;SDS011;49638;47.526;10.028;2023-02-28T04:49:43;13.93;;;6.35;;
63492;SDS011;49638;47.526;10.028;2023-02-28T04:52:43;14.30;;;6.18;;
63492;SDS011;49638;47.526;10.028;2023-02-28T04:55:44;14.38;;;6.30;;
63492;SDS011;49638;47.526;10.028;2023-02-28T04:58:45;11.88;;;6.38;;
63492;SDS011;49638;47.526;10.028;2023-02-28T05:01:47;14.25;;;6.32;;
63492;SDS011;49638;47.526;10.028;2023-02-28T05:04:49;13.17;;;5.90;;
63492;SDS011;49638;47.526;10.028;2023-02-28T05:07:49;14.63;;;6.00;;
63492;SDS011;49638;47.526;10.028;2023-02-28T05:10:49;10.55;;;4.75;;
63492;SDS011;49638;47.526;10.028;2023-02-28T05:13:50;12.13;;;5.40;;
63492;SDS011;49638;47.526;10.028;2023-02-28T05:16:51;11.05;;;5.28;;
63492;SDS011;49638;47.526;10.028;2023-02-28T05:19:51;13.27;;;6.32;;
63492;SDS011;49638;47.526;10.028;2023-02-28T05:22:51;15.25;;;5.90;;
63492;SDS011;49638;47.526;10.028;2023-02-28T05:25:52;12.35;;;5.72;;
63492;SDS011;49638;47.526;10.028;2023-02-28T05:28:53;14.60;;;6.47;;
63492;SDS011;49638;47.526;10.028;2023-02-28T05:31:53;14.15;;;6.15;;
63492;SDS011;49638;47.526;10.028;2023-02-28T05:34:54;15.80;;;6.28;;
63492;SDS011;49638;47.526;10.028;2023-02-28T05:37:54;14.00;;;6.15;;
63492;SDS011;49638;47.526;10.028;2023-02-28T05:40:54;14.50;;;6.78;;
63492;SDS011;49638;47.526;10.028;2023-02-28T05:43:54;13.95;;;6.25;;
63492;SDS011;49638;47.526;10.028;2023-02-28T05:46:55;14.93;;;6.75;;
63492;SDS011;49638;47.526;10.028;2023-02-28T05:49:55;14.52;;;6.43;;
63492;SDS011;49638;47.526;10.028;2023-02-28T05:52:56;14.40;;;6.88;;
63492;SDS011;49638;47.526;10.028;2023-02-28T05:55:56;15.52;;;6.60;;
63492;SDS011;49638;47.526;10.028;2023-02-28T05:58:57;15.50;;;7.13;;
63492;SDS011;49638;47.526;10.028;2023-02-28T06:01:57;23.27;;;9.75;;
63492;SDS011;49638;47.526;10.028;2023-02-28T06:04:57;28.48;;;12.23;;
63492;SDS011;49638;47.526;10.028;2023-02-28T06:07:58;92.55;;;37.58;;
63492;SDS011;49638;47.526;10.028;2023-02-28T06:10:58;32.63;;;13.15;;
63492;SDS011;49638;47.526;10.028;2023-02-28T06:14:03;24.10;;;12.45;;
63492;SDS011;49638;47.526;10.028;2023-02-28T06:17:04;17.25;;;7.88;;
63492;SDS011;49638;47.526;10.028;2023-02-28T06:20:05;19.00;;;8.45;;
63492;SDS011;49638;47.526;10.028;2023-02-28T06:23:06;15.63;;;7.40;;
63492;SDS011;49638;47.526;10.028;2023-02-28T06:26:06;22.17;;;12.05;;
63492;SDS011;49638;47.526;10.028;2023-02-28T06:29:06;21.50;;;10.60;;
63492;SDS011;49638;47.526;10.028;2023-02-28T06:32:07;17.85;;;8.40;;
63492;SDS011;49638;47.526;10.028;2023-02-28T06:35:07;21.17;;;8.07;;
63492;SDS011;49638;47.526;10.028;2023-02-28T06:38:08;21.90;;;8.82;;
63492;SDS011;49638;47.526;10.028;2023-02-28T06:41:09;16.25;;;7.43;;
63492;SDS011;49638;47.526;10.028;2023-02-28T06:44:13;22.75;;;8.30;;
63492;SDS011;49638;47.526;10.028;2023-02-28T06:47:17;23.33;;;8.90;;
63492;SDS011;49638;47.526;10.028;2023-02-28T06:50:17;18.77;;;7.90;;
63492;SDS011;49638;47.526;10.028;2023-02-28T06:53:20;11.43;;;5.50;;
63492;SDS011;49638;47.526;10.028;2023-02-28T06:56:20;15.55;;;7.28;;
63492;SDS011;49638;47.526;10.028;2023-02-28T06:59:21;21.77;;;8.05;;
63492;SDS011;49638;47.526;10.028;2023-02-28T07:02:21;18.52;;;7.60;;
63492;SDS011;49638;47.526;10.028;2023-02-28T07:05:22;16.98;;;8.05;;
63492;SDS011;49638;47.526;10.028;2023-02-28T07:08:22;16.88;;;7.30;;
63492;SDS011;49638;47.526;10.028;2023-02-28T07:11:24;18.55;;;7.65;;
63492;SDS011;49638;47.526;10.028;2023-02-28T07:14:27;17.13;;;7.47;;
63492;SDS011;49638;47.526;10.028;2023-02-28T07:17:27;16.92;;;7.32;;
63492;SDS011;49638;47.526;10.028;2023-02-28T07:20:27;16.42;;;7.22;;
63492;SDS011;49638;47.526;10.028;2023-02-28T07:23:27;17.90;;;7.90;;
63492;SDS011;49638;47.526;10.028;2023-02-28T07:26:28;17.48;;;7.55;;
63492;SDS011;49638;47.526;10.028;2023-02-28T07:29:28;14.82;;;7.18;;
63492;SDS011;49638;47.526;10.028;2023-02-28T07:32:28;15.77;;;7.55;;
63492;SDS011;49638;47.526;10.028;2023-02-28T07:35:29;14.80;;;7.13;;
63492;SDS011;49638;47.526;10.028;2023-02-28T07:38:30;15.18;;;6.97;;
63492;SDS011;49638;47.526;10.028;2023-02-28T07:41:30;12.73;;;6.50;;
63492;SDS011;49638;47.526;10.028;2023-02-28T07:44:33;11.75;;;5.95;;
63492;SDS011;49638;47.526;10.028;2023-02-28T07:47:34;12.52;;;5.70;;
63492;SDS011;49638;47.526;10.028;2023-02-28T07:50:34;15.68;;;5.38;;
63492;SDS011;49638;47.526;10.028;2023-02-28T07:53:34;12.55;;;6.18;;
63492;SDS011;49638;47.526;10.028;2023-02-28T07:56:35;13.43;;;6.30;;
63492;SDS011;49638;47.526;10.028;2023-02-28T07:59:35;10.88;;;5.57;;
63492;SDS011;49638;47.526;10.028;2023-02-28T08:02:35;13.68;;;5.80;;
63492;SDS011;49638;47.526;10.028;2023-02-28T08:05:39;14.45;;;6.50;;
63492;SDS011;49638;47.526;10.028;2023-02-28T08:11:40;11.68;;;5.64;;
63492;SDS011;49638;47.526;10.028;2023-02-28T08:14:40;16.33;;;6.88;;
63492;SDS011;49638;47.526;10.028;2023-02-28T08:17:40;14.00;;;6.63;;
63492;SDS011;49638;47.526;10.028;2023-02-28T08:20:41;15.30;;;6.57;;
63492;SDS011;49638;47.526;10.028;2023-02-28T08:23:41;16.42;;;7.07;;
63492;SDS011;49638;47.526;10.028;2023-02-28T08:26:41;13.35;;;6.60;;
63492;SDS011;49638;47.526;10.028;2023-02-28T08:29:42;14.60;;;7.20;;
63492;SDS011;49638;47.526;10.028;2023-02-28T08:32:42;15.93;;;7.07;;
63492;SDS011;49638;47.526;10.028;2023-02-28T08:35:42;17.17;;;7.07;;
63492;SDS011;49638;47.526;10.028;2023-02-28T08:38:43;14.00;;;7.10;;
63492;SDS011;49638;47.526;10.028;2023-02-28T08:41:43;16.60;;;7.28;;
63492;SDS011;49638;47.526;10.028;2023-02-28T08:44:44;14.43;;;7.40;;
63492;SDS011;49638;47.526;10.028;2023-02-28T08:47:44;16.90;;;7.80;;
63492;SDS011;49638;47.526;10.028;2023-02-28T08:50:54;21.25;;;8.38;;
63492;SDS011;49638;47.526;10.028;2023-02-28T08:54:11;18.65;;;8.40;;
63492;SDS011;49638;47.526;10.028;2023-02-28T08:57:16;18.73;;;8.27;;
63492;SDS011;49638;47.526;10.028;2023-02-28T09:00:16;19.02;;;8.85;;
63492;SDS011;49638;47.526;10.028;2023-02-28T09:03:16;21.23;;;9.52;;
63492;SDS011;49638;47.526;10.028;2023-02-28T09:06:18;17.80;;;8.57;;
63492;SDS011;49638;47.526;10.028;2023-02-28T09:09:19;18.15;;;8.65;;
63492;SDS011;49638;47.526;10.028;2023-02-28T09:12:23;18.73;;;9.15;;
63492;SDS011;49638;47.526;10.028;2023-02-28T09:15:24;17.45;;;8.77;;
63492;SDS011;49638;47.526;10.028;2023-02-28T09:18:24;21.38;;;9.60;;
63492;SDS011;49638;47.526;10.028;2023-02-28T09:21:26;21.08;;;10.05;;
63492;SDS011;49638;47.526;10.028;2023-02-28T09:24:26;19.73;;;9.20;;
63492;SDS011;49638;47.526;10.028;2023-02-28T09:27:27;21.40;;;10.15;;
63492;SDS011;49638;47.526;10.028;2023-02-28T09:30:27;21.48;;;10.15;;
63492;SDS011;49638;47.526;10.028;2023-02-28T09:33:28;17.60;;;9.18;;
63492;SDS011;49638;47.526;10.028;2023-02-28T09:36:28;22.92;;;10.00;;
63492;SDS011;49638;47.526;10.028;2023-02-28T09:39:29;20.08;;;9.80;;
63492;SDS011;49638;47.526;10.028;2023-02-28T09:42:31;20.20;;;9.98;;
63492;SDS011;49638;47.526;10.028;2023-02-28T09:45:35;21.75;;;9.70;;
63492;SDS011;49638;47.526;10.028;2023-02-28T09:48:39;21.40;;;9.93;;
63492;SDS011;49638;47.526;10.028;2023-02-28T09:51:51;20.85;;;9.70;;
63492;SDS011;49638;47.526;10.028;2023-02-28T09:58:32;21.08;;;9.48;;
63492;SDS011;49638;47.526;10.028;2023-02-28T10:05:00;22.38;;;9.52;;
63492;SDS011;49638;47.526;10.028;2023-02-28T10:11:42;22.98;;;10.40;;
63492;SDS011;49638;47.526;10.028;2023-02-28T10:14:45;23.90;;;10.10;;
63492;SDS011;49638;47.526;10.028;2023-02-28T10:17:49;21.95;;;10.50;;
63492;SDS011;49638;47.526;10.028;2023-02-28T10:20:56;18.77;;;10.00;;
63492;SDS011;49638;47.526;10.028;2023-02-28T10:27:31;22.65;;;10.70;;
63492;SDS011;49638;47.526;10.028;2023-02-28T10:30:32;20.75;;;10.38;;
63492;SDS011;49638;47.526;10.028;2023-02-28T10:33:33;22.02;;;10.07;;
63492;SDS011;49638;47.526;10.028;2023-02-28T10:36:35;17.13;;;9.20;;
63492;SDS011;49638;47.526;10.028;2023-02-28T10:39:45;19.83;;;9.57;;
63492;SDS011;49638;47.526;10.028;2023-02-28T10:46:01;19.42;;;10.02;;
63492;SDS011;49638;47.526;10.028;2023-02-28T10:49:05;23.10;;;10.85;;
63492;SDS011;49638;47.526;10.028;2023-02-28T10:52:12;20.10;;;10.27;;
63492;SDS011;49638;47.526;10.028;2023-02-28T10:58:26;21.48;;;10.40;;
63492;SDS011;49638;47.526;10.028;2023-02-28T11:04:34;21.15;;;9.93;;
63492;SDS011;49638;47.526;10.028;2023-02-28T11:07:36;22.63;;;10.20;;
63492;SDS011;49638;47.526;10.028;2023-02-28T11:10:39;21.17;;;10.60;;
63492;SDS011;49638;47.526;10.028;2023-02-28T11:13:44;19.92;;;10.15;;
63492;SDS011;49638;47.526;10.028;2023-02-28T11:16:46;15.13;;;7.40;;
63492;SDS011;49638;47.526;10.028;2023-02-28T11:19:50;23.00;;;10.93;;
63492;SDS011;49638;47.526;10.028;2023-02-28T11:22:53;20.70;;;10.43;;
63492;SDS011;49638;47.526;10.028;2023-02-28T11:25:56;20.27;;;10.43;;
63492;SDS011;49638;47.526;10.028;2023-02-28T11:29:03;22.80;;;10.90;;
63492;SDS011;49638;47.526;10.028;2023-02-28T11:32:12;21.67;;;10.13;;
63492;SDS011;49638;47.526;10.028;2023-02-28T11:35:33;21.85;;;10.65;;
63492;SDS011;49638;47.526;10.028;2023-02-28T11:38:37;21.05;;;10.35;;
63492;SDS011;49638;47.526;10.028;2023-02-28T11:45:21;22.45;;;10.82;;
63492;SDS011;49638;47.526;10.028;2023-02-28T11:58:23;22.52;;;10.95;;
63492;SDS011;49638;47.526;10.028;2023-02-28T12:05:38;19.98;;;9.30;;
63492;SDS011;49638;47.526;10.028;2023-02-28T12:12:15;25.13;;;10.93;;
63492;SDS011;49638;47.526;10.028;2023-02-28T12:28:23;18.85;;;9.63;;
63492;SDS011;49638;47.526;10.028;2023-02-28T12:31:28;22.77;;;10.23;;
63492;SDS011;49638;47.526;10.028;2023-02-28T12:34:39;19.42;;;10.13;;
63492;SDS011;49638;47.526;10.028;2023-02-28T12:37:49;21.75;;;10.80;;
63492;SDS011;49638;47.526;10.028;2023-02-28T12:40:56;18.52;;;8.15;;
63492;SDS011;49638;47.526;10.028;2023-02-28T12:44:03;24.63;;;11.32;;
63492;SDS011;49638;47.526;10.028;2023-02-28T12:47:10;21.92;;;10.57;;
63492;SDS011;49638;47.526;10.028;2023-02-28T12:50:15;19.77;;;9.55;;
63492;SDS011;49638;47.526;10.028;2023-02-28T12:53:27;25.42;;;10.48;;
63492;SDS011;49638;47.526;10.028;2023-02-28T12:59:45;22.55;;;11.13;;
63492;SDS011;49638;47.526;10.028;2023-02-28T13:06:18;24.00;;;11.13;;
63492;SDS011;49638;47.526;10.028;2023-02-28T13:09:23;24.42;;;11.25;;
63492;SDS011;49638;47.526;10.028;2023-02-28T13:12:24;25.20;;;11.55;;
63492;SDS011;49638;47.526;10.028;2023-02-28T13:15:27;22.52;;;10.85;;
63492;SDS011;49638;47.526;10.028;2023-02-28T13:18:33;22.17;;;10.20;;
63492;SDS011;49638;47.526;10.028;2023-02-28T13:21:41;23.42;;;11.05;;
63492;SDS011;49638;47.526;10.028;2023-02-28T13:24:48;23.90;;;11.57;;
63492;SDS011;49638;47.526;10.028;2023-02-28T13:27:54;23.95;;;11.05;;
63492;SDS011;49638;47.526;10.028;2023-02-28T13:31:04;23.10;;;11.15;;
63492;SDS011;49638;47.526;10.028;2023-02-28T13:34:11;25.13;;;11.75;;
63492;SDS011;49638;47.526;10.028;2023-02-28T13:40:29;27.92;;;12.40;;
63492;SDS011;49638;47.526;10.028;2023-02-28T14:06:27;22.15;;;11.23;;
63492;SDS011;49638;47.526;10.028;2023-02-28T14:09:31;31.15;;;12.65;;
63492;SDS011;49638;47.526;10.028;2023-02-28T14:16:03;25.25;;;12.25;;
63492;SDS011;49638;47.526;10.028;2023-02-28T14:19:11;25.98;;;12.80;;
63492;SDS011;49638;47.526;10.028;2023-02-28T14:36:01;26.80;;;13.18;;
63492;SDS011;49638;47.526;10.028;2023-02-28T14:39:22;28.38;;;13.88;;
63492;SDS011;49638;47.526;10.028;2023-02-28T14:45:37;32.28;;;13.85;;
63492;SDS011;49638;47.526;10.028;2023-02-28T14:48:37;27.52;;;13.70;;
63492;SDS011;49638;47.526;10.028;2023-02-28T14:51:38;28.88;;;13.63;;
63492;SDS011;49638;47.526;10.028;2023-02-28T14:54:39;30.33;;;14.52;;
63492;SDS011;49638;47.526;10.028;2023-02-28T14:57:41;30.55;;;14.00;;
63492;SDS011;49638;47.526;10.028;2023-02-28T15:00:51;27.23;;;13.35;;
63492;SDS011;49638;47.526;10.028;2023-02-28T15:03:57;30.85;;;14.43;;
63492;SDS011;49638;47.526;10.028;2023-02-28T15:07:13;31.45;;;14.07;;
63492;SDS011;49638;47.526;10.028;2023-02-28T15:10:19;35.92;;;14.50;;
63492;SDS011;49638;47.526;10.028;2023-02-28T15:13:19;31.73;;;13.65;;
63492;SDS011;49638;47.526;10.028;2023-02-28T15:22:37;32.47;;;14.95;;
63492;SDS011;49638;47.526;10.028;2023-02-28T15:25:38;34.60;;;15.43;;
63492;SDS011;49638;47.526;10.028;2023-02-28T15:28:40;32.47;;;14.40;;
63492;SDS011;49638;47.526;10.028;2023-02-28T15:31:45;32.63;;;16.20;;
63492;SDS011;49638;47.526;10.028;2023-02-28T15:34:48;36.05;;;18.02;;
63492;SDS011;49638;47.526;10.028;2023-02-28T15:38:02;40.13;;;17.73;;
63492;SDS011;49638;47.526;10.028;2023-02-28T15:41:22;57.42;;;26.45;;
63492;SDS011;49638;47.526;10.028;2023-02-28T15:44:26;53.70;;;24.85;;
63492;SDS011;49638;47.526;10.028;2023-02-28T15:47:29;47.28;;;21.20;;
63492;SDS011;49638;47.526;10.028;2023-02-28T15:50:30;35.42;;;14.80;;
63492;SDS011;49638;47.526;10.028;2023-02-28T15:54:05;37.80;;;17.65;;
63492;SDS011;49638;47.526;10.028;2023-02-28T15:57:05;39.03;;;15.60;;
63492;SDS011;49638;47.526;10.028;2023-02-28T16:00:11;39.15;;;16.38;;
63492;SDS011;49638;47.526;10.028;2023-02-28T16:03:26;41.83;;;17.38;;
63492;SDS011;49638;47.526;10.028;2023-02-28T16:09:28;33.53;;;15.10;;
63492;SDS011;49638;47.526;10.028;2023-02-28T16:12:31;44.53;;;17.60;;
63492;SDS011;49638;47.526;10.028;2023-02-28T16:15:35;42.45;;;18.25;;
63492;SDS011;49638;47.526;10.028;2023-02-28T16:18:42;36.10;;;15.40;;
63492;SDS011;49638;47.526;10.028;2023-02-28T16:21:42;35.25;;;15.63;;
63492;SDS011;49638;47.526;10.028;2023-02-28T16:24:43;33.83;;;14.85;;
63492;SDS011;49638;47.526;10.028;2023-02-28T16:27:44;31.75;;;14.55;;
63492;SDS011;49638;47.526;10.028;2023-02-28T16:30:46;40.83;;;17.20;;
63492;SDS011;49638;47.526;10.028;2023-02-28T16:33:47;36.88;;;17.30;;
63492;SDS011;49638;47.526;10.028;2023-02-28T16:36:47;41.60;;;17.42;;
63492;SDS011;49638;47.526;10.028;2023-02-28T16:39:49;32.65;;;15.15;;
63492;SDS011;49638;47.526;10.028;2023-02-28T16:42:51;40.90;;;17.90;;
63492;SDS011;49638;47.526;10.028;2023-02-28T16:45:55;35.40;;;16.65;;
63492;SDS011;49638;47.526;10.028;2023-02-28T16:48:58;35.50;;;14.67;;
63492;SDS011;49638;47.526;10.028;2023-02-28T16:51:58;47.38;;;20.20;;
63492;SDS011;49638;47.526;10.028;2023-02-28T16:54:58;52.65;;;21.55;;
63492;SDS011;49638;47.526;10.028;2023-02-28T16:58:00;46.35;;;20.60;;
63492;SDS011;49638;47.526;10.028;2023-02-28T17:01:02;39.67;;;17.35;;
63492;SDS011;49638;47.526;10.028;2023-02-28T17:04:03;84.32;;;31.73;;
63492;SDS011;49638;47.526;10.028;2023-02-28T17:07:03;40.08;;;17.33;;
63492;SDS011;49638;47.526;10.028;2023-02-28T17:10:10;45.55;;;20.25;;
63492;SDS011;49638;47.526;10.028;2023-02-28T17:13:17;49.35;;;21.10;;
63492;SDS011;49638;47.526;10.028;2023-02-28T17:16:30;40.00;;;16.25;;
63492;SDS011;49638;47.526;10.028;2023-02-28T17:19:32;43.33;;;19.23;;
63492;SDS011;49638;47.526;10.028;2023-02-28T17:22:34;36.65;;;15.55;;
63492;SDS011;49638;47.526;10.028;2023-02-28T17:25:34;36.83;;;15.27;;
63492;SDS011;49638;47.526;10.028;2023-02-28T17:28:35;46.05;;;21.00;;
63492;SDS011;49638;47.526;10.028;2023-02-28T17:31:35;34.58;;;15.85;;
63492;SDS011;49638;47.526;10.028;2023-02-28T17:34:38;41.28;;;18.58;;
63492;SDS011;49638;47.526;10.028;2023-02-28T17:37:38;49.30;;;21.58;;
63492;SDS011;49638;47.526;10.028;2023-02-28T17:40:39;40.50;;;16.80;;
63492;SDS011;49638;47.526;10.028;2023-02-28T17:43:40;39.80;;;16.25;;
63492;SDS011;49638;47.526;10.028;2023-02-28T17:46:40;38.00;;;15.85;;
63492;SDS011;49638;47.526;10.028;2023-02-28T17:49:42;37.63;;;15.57;;
63492;SDS011;49638;47.526;10.028;2023-02-28T17:52:42;33.70;;;14.30;;
63492;SDS011;49638;47.526;10.028;2023-02-28T17:55:42;54.92;;;22.80;;
63492;SDS011;49638;47.526;10.028;2023-02-28T17:58:43;40.22;;;16.08;;
63492;SDS011;49638;47.526;10.028;2023-02-28T18:01:43;44.30;;;17.92;;
63492;SDS011;49638;47.526;10.028;2023-02-28T18:04:43;37.22;;;14.52;;
63492;SDS011;49638;47.526;10.028;2023-02-28T18:07:44;36.45;;;14.43;;
63492;SDS011;49638;47.526;10.028;2023-02-28T18:10:44;35.22;;;14.45;;
63492;SDS011;49638;47.526;10.028;2023-02-28T18:13:45;37.15;;;14.80;;
63492;SDS011;49638;47.526;10.028;2023-02-28T18:16:51;37.65;;;15.85;;
63492;SDS011;49638;47.526;10.028;2023-02-28T18:19:52;38.42;;;16.75;;
63492;SDS011;49638;47.526;10.028;2023-02-28T18:22:52;38.53;;;16.27;;
63492;SDS011;49638;47.526;10.028;2023-02-28T18:25:53;38.17;;;16.48;;
63492;SDS011;49638;47.526;10.028;2023-02-28T18:28:53;45.22;;;18.10;;
63492;SDS011;49638;47.526;10.028;2023-02-28T18:31:54;36.55;;;17.08;;
63492;SDS011;49638;47.526;10.028;2023-02-28T18:34:55;57.35;;;24.23;;
63492;SDS011;49638;47.526;10.028;2023-02-28T18:37:55;47.67;;;18.65;;
63492;SDS011;49638;47.526;10.028;2023-02-28T18:40:56;34.85;;;15.35;;
63492;SDS011;49638;47.526;10.028;2023-02-28T18:43:59;38.78;;;15.63;;
63492;SDS011;49638;47.526;10.028;2023-02-28T18:47:01;34.88;;;14.98;;
63492;SDS011;49638;47.526;10.028;2023-02-28T18:50:01;38.03;;;15.63;;
63492;SDS011;49638;47.526;10.028;2023-02-28T18:53:02;38.25;;;15.60;;
63492;SDS011;49638;47.526;10.028;2023-02-28T18:56:03;38.60;;;15.70;;
63492;SDS011;49638;47.526;10.028;2023-02-28T18:59:04;38.88;;;14.90;;
63492;SDS011;49638;47.526;10.028;2023-02-28T19:02:05;50.45;;;21.23;;
63492;SDS011;49638;47.526;10.028;2023-02-28T19:05:06;51.63;;;20.67;;
63492;SDS011;49638;47.526;10.028;2023-02-28T19:08:06;38.25;;;15.77;;
63492;SDS011;49638;47.526;10.028;2023-02-28T19:11:08;36.97;;;15.45;;
63492;SDS011;49638;47.526;10.028;2023-02-28T19:14:09;38.30;;;15.48;;
63492;SDS011;49638;47.526;10.028;2023-02-28T19:17:09;41.92;;;17.77;;
63492;SDS011;49638;47.526;10.028;2023-02-28T19:20:10;36.38;;;15.30;;
63492;SDS011;49638;47.526;10.028;2023-02-28T19:23:11;40.03;;;16.55;;
63492;SDS011;49638;47.526;10.028;2023-02-28T19:26:15;35.50;;;15.10;;
63492;SDS011;49638;47.526;10.028;2023-02-28T19:29:18;36.88;;;15.68;;
63492;SDS011;49638;47.526;10.028;2023-02-28T19:32:19;36.97;;;15.85;;
63492;SDS011;49638;47.526;10.028;2023-02-28T19:35:19;40.30;;;15.93;;
63492;SDS011;49638;47.526;10.028;2023-02-28T19:38:19;35.78;;;15.13;;
63492;SDS011;49638;47.526;10.028;2023-02-28T19:41:20;37.75;;;15.93;;
63492;SDS011;49638;47.526;10.028;2023-02-28T19:44:20;36.55;;;15.13;;
63492;SDS011;49638;47.526;10.028;2023-02-28T19:47:20;37.67;;;14.93;;
63492;SDS011;49638;47.526;10.028;2023-02-28T19:50:21;38.25;;;14.85;;
63492;SDS011;49638;47.526;10.028;2023-02-28T19:53:22;32.22;;;14.13;;
63492;SDS011;49638;47.526;10.028;2023-02-28T19:56:22;36.45;;;14.48;;
63492;SDS011;49638;47.526;10.028;2023-02-28T19:59:23;34.08;;;13.85;;
63492;SDS011;49638;47.526;10.028;2023-02-28T20:02:24;38.92;;;15.07;;
63492;SDS011;49638;47.526;10.028;2023-02-28T20:05:25;36.47;;;14.88;;
63492;SDS011;49638;47.526;10.028;2023-02-28T20:08:25;33.65;;;13.48;;
63492;SDS011;49638;47.526;10.028;2023-02-28T20:11:25;35.67;;;14.13;;
63492;SDS011;49638;47.526;10.028;2023-02-28T20:14:26;29.98;;;13.15;;
63492;SDS011;49638;47.526;10.028;2023-02-28T20:17:27;29.20;;;12.45;;
63492;SDS011;49638;47.526;10.028;2023-02-28T20:20:29;30.20;;;11.93;;
63492;SDS011;49638;47.526;10.028;2023-02-28T20:23:29;28.45;;;11.88;;
63492;SDS011;49638;47.526;10.028;2023-02-28T20:26:29;32.42;;;12.60;;